Hovedside
METAR-TAF:

METAR-TAF

Lufthavner :

Diori Hamani internasjonale lufthavn

Niamey, Niger

breddegrad: 13-29N, lengdegrad: 002-10E, høyde over havet: 223 m

Gjeldene værobservasjon

Denne rapporten ble laget for 50 minutter siden, klokken 14:00 UTC
Vind 11 kt fra Øst-nordøst, skiftende mellom Nordøst og Øst-sørøst
Temperatur 31°C
Luftfuktighet 6%
Trykk 1013 hPa
Sikt: 3500 m
mye støv

METAR: DRRN 271400Z 07011KT 040V120 3500 DU NSC 31/M10 Q1013 NOSIG

Tid: 15:50 (14:50 UTC)

Varsel

Denne rapporten ble laget for 3 timer og 50 minutter siden, klokken 11:00 UTC
Varsel gyldig fra 27. klokken 12 UTC til 28. klokken 18 UTC
Vind 12 kt fra Øst
Sikt: 3000 m
mye støv
Midlertidig
fra 27. klokken 17 UTC til 27. klokken 20 UTC
Sikt: 2000 m
Midlertidig
fra 28. klokken 06 UTC til 28. klokken 09 UTC
Sikt: 2000 m

TAF: DRRN 271100Z 2712/2818 10012KT 3000 DU NSC TEMPO 2717/2720 2000 TEMPO 2806/2809 2000

Værobservasjoner og værvarsel for over 4000 flyplasser (METAR- og TAF-rapporter).

Tilgjengelige stasjoner er representert av de røde og gule prikkene på kartet.

Hold musepekeren over prikken for å se navnet på stasjonen.

Klikk så for å se værobservasjoner og -varsler.

For å forandre kartet kan du klikke på den grønne knappen med svart kryss for å zoome inn, på den grønne knappen med strek for å zoome ut, eller på de grønne pilene for å se tilstøtende kart.


METAR-TAF: